sensor_id;sensor_type;location;lat;lon;timestamp;temperature;humidity
59556;DHT22;45374;52.746;6.304;2022-08-21T00:01:37;14.60;99.90
59556;DHT22;45374;52.746;6.304;2022-08-21T00:04:07;14.50;99.90
59556;DHT22;45374;52.746;6.304;2022-08-21T00:06:32;14.50;99.90
59556;DHT22;45374;52.746;6.304;2022-08-21T00:08:59;14.50;99.90
59556;DHT22;45374;52.746;6.304;2022-08-21T00:11:25;14.50;99.90
59556;DHT22;45374;52.746;6.304;2022-08-21T00:13:52;14.50;99.90
59556;DHT22;45374;52.746;6.304;2022-08-21T00:16:18;14.50;99.90
59556;DHT22;45374;52.746;6.304;2022-08-21T00:18:44;14.40;99.90
59556;DHT22;45374;52.746;6.304;2022-08-21T00:21:11;14.50;99.90
59556;DHT22;45374;52.746;6.304;2022-08-21T00:23:37;14.40;99.90
59556;DHT22;45374;52.746;6.304;2022-08-21T00:26:03;14.40;99.90
59556;DHT22;45374;52.746;6.304;2022-08-21T00:28:29;14.40;99.90
59556;DHT22;45374;52.746;6.304;2022-08-21T00:30:56;14.50;99.90
59556;DHT22;45374;52.746;6.304;2022-08-21T00:33:22;14.40;99.90
59556;DHT22;45374;52.746;6.304;2022-08-21T00:35:48;14.50;99.90
59556;DHT22;45374;52.746;6.304;2022-08-21T00:38:14;14.50;99.90
59556;DHT22;45374;52.746;6.304;2022-08-21T00:40:46;14.50;99.90
59556;DHT22;45374;52.746;6.304;2022-08-21T00:43:15;14.60;99.90
59556;DHT22;45374;52.746;6.304;2022-08-21T00:45:41;14.60;99.90
59556;DHT22;45374;52.746;6.304;2022-08-21T00:48:07;14.50;99.90
59556;DHT22;45374;52.746;6.304;2022-08-21T00:50:35;14.50;99.90
59556;DHT22;45374;52.746;6.304;2022-08-21T00:53:03;14.40;99.90
59556;DHT22;45374;52.746;6.304;2022-08-21T00:55:32;14.40;99.90
59556;DHT22;45374;52.746;6.304;2022-08-21T00:57:59;14.30;99.90
59556;DHT22;45374;52.746;6.304;2022-08-21T01:00:30;14.30;99.90
59556;DHT22;45374;52.746;6.304;2022-08-21T01:02:57;14.30;99.90
59556;DHT22;45374;52.746;6.304;2022-08-21T01:05:23;14.20;99.90
59556;DHT22;45374;52.746;6.304;2022-08-21T01:07:49;14.20;99.90
59556;DHT22;45374;52.746;6.304;2022-08-21T01:10:15;14.10;99.90
59556;DHT22;45374;52.746;6.304;2022-08-21T01:12:41;14.10;99.90
59556;DHT22;45374;52.746;6.304;2022-08-21T01:15:09;14.10;99.90
59556;DHT22;45374;52.746;6.304;2022-08-21T01:17:36;14.00;99.90
59556;DHT22;45374;52.746;6.304;2022-08-21T01:20:06;13.90;99.90
59556;DHT22;45374;52.746;6.304;2022-08-21T01:22:32;13.90;99.90
59556;DHT22;45374;52.746;6.304;2022-08-21T01:24:58;13.80;99.90
59556;DHT22;45374;52.746;6.304;2022-08-21T01:27:24;13.70;99.90
59556;DHT22;45374;52.746;6.304;2022-08-21T01:30:03;13.60;99.90
59556;DHT22;45374;52.746;6.304;2022-08-21T01:32:29;13.70;99.90
59556;DHT22;45374;52.746;6.304;2022-08-21T01:34:54;13.60;99.90
59556;DHT22;45374;52.746;6.304;2022-08-21T01:37:21;13.60;99.90
59556;DHT22;45374;52.746;6.304;2022-08-21T01:39:47;13.60;99.90
59556;DHT22;45374;52.746;6.304;2022-08-21T01:42:14;13.70;99.90
59556;DHT22;45374;52.746;6.304;2022-08-21T01:44:40;13.70;99.90
59556;DHT22;45374;52.746;6.304;2022-08-21T01:47:09;13.60;99.90
59556;DHT22;45374;52.746;6.304;2022-08-21T01:49:36;13.50;99.90
59556;DHT22;45374;52.746;6.304;2022-08-21T01:52:03;13.50;99.90
59556;DHT22;45374;52.746;6.304;2022-08-21T01:54:30;13.50;99.90
59556;DHT22;45374;52.746;6.304;2022-08-21T01:56:55;13.50;99.90
59556;DHT22;45374;52.746;6.304;2022-08-21T01:59:22;13.50;99.90
59556;DHT22;45374;52.746;6.304;2022-08-21T02:01:49;13.50;99.90
59556;DHT22;45374;52.746;6.304;2022-08-21T02:04:15;13.50;99.90
59556;DHT22;45374;52.746;6.304;2022-08-21T02:06:41;13.40;99.90
59556;DHT22;45374;52.746;6.304;2022-08-21T02:09:08;13.30;99.90
59556;DHT22;45374;52.746;6.304;2022-08-21T02:11:35;13.30;99.90
59556;DHT22;45374;52.746;6.304;2022-08-21T02:14:01;13.30;99.90
59556;DHT22;45374;52.746;6.304;2022-08-21T02:16:27;13.30;99.90
59556;DHT22;45374;52.746;6.304;2022-08-21T02:18:53;13.30;99.90
59556;DHT22;45374;52.746;6.304;2022-08-21T02:21:18;13.20;99.90
59556;DHT22;45374;52.746;6.304;2022-08-21T02:23:44;13.20;99.90
59556;DHT22;45374;52.746;6.304;2022-08-21T02:26:10;13.10;99.90
59556;DHT22;45374;52.746;6.304;2022-08-21T02:28:37;13.10;99.90
59556;DHT22;45374;52.746;6.304;2022-08-21T02:31:03;13.10;99.90
59556;DHT22;45374;52.746;6.304;2022-08-21T02:33:29;13.00;99.90
59556;DHT22;45374;52.746;6.304;2022-08-21T02:35:55;13.00;99.90
59556;DHT22;45374;52.746;6.304;2022-08-21T02:38:30;13.00;99.90
59556;DHT22;45374;52.746;6.304;2022-08-21T02:40:56;13.00;99.90
59556;DHT22;45374;52.746;6.304;2022-08-21T02:43:24;12.90;99.90
59556;DHT22;45374;52.746;6.304;2022-08-21T02:45:50;12.90;99.90
59556;DHT22;45374;52.746;6.304;2022-08-21T02:48:20;12.90;99.90
59556;DHT22;45374;52.746;6.304;2022-08-21T02:50:51;12.80;99.90
59556;DHT22;45374;52.746;6.304;2022-08-21T02:53:17;12.80;99.90
59556;DHT22;45374;52.746;6.304;2022-08-21T02:55:47;12.80;99.90
59556;DHT22;45374;52.746;6.304;2022-08-21T02:58:15;12.80;99.90
59556;DHT22;45374;52.746;6.304;2022-08-21T03:00:41;12.90;99.90
59556;DHT22;45374;52.746;6.304;2022-08-21T03:03:07;12.80;99.90
59556;DHT22;45374;52.746;6.304;2022-08-21T03:05:34;12.80;99.90
59556;DHT22;45374;52.746;6.304;2022-08-21T03:08:01;12.80;99.90
59556;DHT22;45374;52.746;6.304;2022-08-21T03:10:28;12.90;99.90
59556;DHT22;45374;52.746;6.304;2022-08-21T03:12:54;12.90;99.90
59556;DHT22;45374;52.746;6.304;2022-08-21T03:15:22;12.80;99.90
59556;DHT22;45374;52.746;6.304;2022-08-21T03:17:49;12.90;99.90
59556;DHT22;45374;52.746;6.304;2022-08-21T03:20:18;12.90;99.90
59556;DHT22;45374;52.746;6.304;2022-08-21T03:22:44;12.80;99.90
59556;DHT22;45374;52.746;6.304;2022-08-21T03:25:09;12.80;99.90
59556;DHT22;45374;52.746;6.304;2022-08-21T03:27:36;12.90;99.90
59556;DHT22;45374;52.746;6.304;2022-08-21T03:30:05;12.90;99.90
59556;DHT22;45374;52.746;6.304;2022-08-21T03:32:31;13.00;99.90
59556;DHT22;45374;52.746;6.304;2022-08-21T03:34:57;13.00;99.90
59556;DHT22;45374;52.746;6.304;2022-08-21T03:37:23;12.90;99.90
59556;DHT22;45374;52.746;6.304;2022-08-21T03:39:50;12.90;99.90
59556;DHT22;45374;52.746;6.304;2022-08-21T03:42:16;13.00;99.90
59556;DHT22;45374;52.746;6.304;2022-08-21T03:44:42;13.00;99.90
59556;DHT22;45374;52.746;6.304;2022-08-21T03:47:08;13.00;99.90
59556;DHT22;45374;52.746;6.304;2022-08-21T03:49:33;13.00;99.90
59556;DHT22;45374;52.746;6.304;2022-08-21T03:51:59;13.00;99.90
59556;DHT22;45374;52.746;6.304;2022-08-21T03:54:25;13.10;99.90
59556;DHT22;45374;52.746;6.304;2022-08-21T03:56:51;13.10;99.90
59556;DHT22;45374;52.746;6.304;2022-08-21T03:59:17;13.10;99.90
59556;DHT22;45374;52.746;6.304;2022-08-21T04:01:54;13.10;99.90
59556;DHT22;45374;52.746;6.304;2022-08-21T04:04:19;13.10;99.90
59556;DHT22;45374;52.746;6.304;2022-08-21T04:06:45;13.10;99.90
59556;DHT22;45374;52.746;6.304;2022-08-21T04:09:11;13.10;99.90
59556;DHT22;45374;52.746;6.304;2022-08-21T04:11:37;13.10;99.90
59556;DHT22;45374;52.746;6.304;2022-08-21T04:14:03;13.10;99.90
59556;DHT22;45374;52.746;6.304;2022-08-21T04:16:28;13.10;99.90
59556;DHT22;45374;52.746;6.304;2022-08-21T04:18:54;13.10;99.90
59556;DHT22;45374;52.746;6.304;2022-08-21T04:21:19;13.00;99.90
59556;DHT22;45374;52.746;6.304;2022-08-21T04:23:45;13.00;99.90
59556;DHT22;45374;52.746;6.304;2022-08-21T04:26:10;13.00;99.90
59556;DHT22;45374;52.746;6.304;2022-08-21T04:28:36;13.00;99.90
59556;DHT22;45374;52.746;6.304;2022-08-21T04:31:02;13.10;99.90
59556;DHT22;45374;52.746;6.304;2022-08-21T04:33:27;13.00;99.90
59556;DHT22;45374;52.746;6.304;2022-08-21T04:35:53;13.00;99.90
59556;DHT22;45374;52.746;6.304;2022-08-21T04:38:19;13.00;99.90
59556;DHT22;45374;52.746;6.304;2022-08-21T04:40:46;13.00;99.90
59556;DHT22;45374;52.746;6.304;2022-08-21T04:43:13;13.00;99.90
59556;DHT22;45374;52.746;6.304;2022-08-21T04:45:45;13.00;99.90
59556;DHT22;45374;52.746;6.304;2022-08-21T04:48:14;13.00;99.90
59556;DHT22;45374;52.746;6.304;2022-08-21T04:50:49;13.00;99.90
59556;DHT22;45374;52.746;6.304;2022-08-21T04:53:20;13.00;99.90
59556;DHT22;45374;52.746;6.304;2022-08-21T04:55:47;13.00;99.90
59556;DHT22;45374;52.746;6.304;2022-08-21T04:58:15;13.10;99.90
59556;DHT22;45374;52.746;6.304;2022-08-21T05:00:43;13.00;99.90
59556;DHT22;45374;52.746;6.304;2022-08-21T05:03:10;13.10;99.90
59556;DHT22;45374;52.746;6.304;2022-08-21T05:05:36;13.10;99.90
59556;DHT22;45374;52.746;6.304;2022-08-21T05:08:03;13.20;99.90
59556;DHT22;45374;52.746;6.304;2022-08-21T05:10:29;13.30;99.90
59556;DHT22;45374;52.746;6.304;2022-08-21T05:12:57;13.40;99.90
59556;DHT22;45374;52.746;6.304;2022-08-21T05:15:23;13.50;99.90
59556;DHT22;45374;52.746;6.304;2022-08-21T05:17:48;13.50;99.90
59556;DHT22;45374;52.746;6.304;2022-08-21T05:20:16;13.70;99.90
59556;DHT22;45374;52.746;6.304;2022-08-21T05:22:42;13.70;99.90
59556;DHT22;45374;52.746;6.304;2022-08-21T05:25:09;13.80;99.90
59556;DHT22;45374;52.746;6.304;2022-08-21T05:27:35;13.90;99.90
59556;DHT22;45374;52.746;6.304;2022-08-21T05:30:01;14.00;99.90
59556;DHT22;45374;52.746;6.304;2022-08-21T05:32:26;14.00;99.90
59556;DHT22;45374;52.746;6.304;2022-08-21T05:34:54;14.10;99.90
59556;DHT22;45374;52.746;6.304;2022-08-21T05:37:20;14.20;99.90
59556;DHT22;45374;52.746;6.304;2022-08-21T05:39:45;14.30;99.90
59556;DHT22;45374;52.746;6.304;2022-08-21T05:42:11;14.30;99.90
59556;DHT22;45374;52.746;6.304;2022-08-21T05:44:37;14.40;99.90
59556;DHT22;45374;52.746;6.304;2022-08-21T05:47:07;14.50;99.90
59556;DHT22;45374;52.746;6.304;2022-08-21T05:49:33;14.60;99.90
59556;DHT22;45374;52.746;6.304;2022-08-21T05:51:59;14.70;99.90
59556;DHT22;45374;52.746;6.304;2022-08-21T05:54:25;14.80;99.90
59556;DHT22;45374;52.746;6.304;2022-08-21T05:56:51;14.80;99.90
59556;DHT22;45374;52.746;6.304;2022-08-21T05:59:17;14.80;99.90
59556;DHT22;45374;52.746;6.304;2022-08-21T06:01:44;15.00;99.90
59556;DHT22;45374;52.746;6.304;2022-08-21T06:04:11;15.20;99.90
59556;DHT22;45374;52.746;6.304;2022-08-21T06:06:37;15.20;99.90
59556;DHT22;45374;52.746;6.304;2022-08-21T06:09:03;15.30;99.90
59556;DHT22;45374;52.746;6.304;2022-08-21T06:11:29;15.40;99.90
59556;DHT22;45374;52.746;6.304;2022-08-21T06:13:54;15.40;99.90
59556;DHT22;45374;52.746;6.304;2022-08-21T06:16:20;15.50;99.90
59556;DHT22;45374;52.746;6.304;2022-08-21T06:18:47;15.50;99.90
59556;DHT22;45374;52.746;6.304;2022-08-21T06:21:13;15.60;99.90
59556;DHT22;45374;52.746;6.304;2022-08-21T06:23:39;15.80;99.90
59556;DHT22;45374;52.746;6.304;2022-08-21T06:26:06;15.80;99.90
59556;DHT22;45374;52.746;6.304;2022-08-21T06:28:33;15.90;99.90
59556;DHT22;45374;52.746;6.304;2022-08-21T06:30:58;16.00;99.90
59556;DHT22;45374;52.746;6.304;2022-08-21T06:33:24;16.00;99.90
59556;DHT22;45374;52.746;6.304;2022-08-21T06:35:50;16.10;99.90
59556;DHT22;45374;52.746;6.304;2022-08-21T06:38:16;16.30;99.90
59556;DHT22;45374;52.746;6.304;2022-08-21T06:40:42;16.40;99.90
59556;DHT22;45374;52.746;6.304;2022-08-21T06:43:13;16.50;99.90
59556;DHT22;45374;52.746;6.304;2022-08-21T06:45:39;16.50;99.90
59556;DHT22;45374;52.746;6.304;2022-08-21T06:48:06;16.60;99.90
59556;DHT22;45374;52.746;6.304;2022-08-21T06:50:35;16.70;99.90
59556;DHT22;45374;52.746;6.304;2022-08-21T06:53:06;16.80;99.90
59556;DHT22;45374;52.746;6.304;2022-08-21T06:55:32;16.90;99.90
59556;DHT22;45374;52.746;6.304;2022-08-21T06:57:58;17.00;99.90
59556;DHT22;45374;52.746;6.304;2022-08-21T07:00:24;17.10;99.90
59556;DHT22;45374;52.746;6.304;2022-08-21T07:02:50;17.20;99.90
59556;DHT22;45374;52.746;6.304;2022-08-21T07:05:15;17.30;99.90
59556;DHT22;45374;52.746;6.304;2022-08-21T07:07:41;17.40;99.90
59556;DHT22;45374;52.746;6.304;2022-08-21T07:10:07;17.50;99.90
59556;DHT22;45374;52.746;6.304;2022-08-21T07:12:32;17.60;99.90
59556;DHT22;45374;52.746;6.304;2022-08-21T07:15:01;17.70;99.90
59556;DHT22;45374;52.746;6.304;2022-08-21T07:17:27;17.70;99.90
59556;DHT22;45374;52.746;6.304;2022-08-21T07:19:52;17.80;99.90
59556;DHT22;45374;52.746;6.304;2022-08-21T07:22:20;17.90;99.90
59556;DHT22;45374;52.746;6.304;2022-08-21T07:24:46;17.90;99.90
59556;DHT22;45374;52.746;6.304;2022-08-21T07:27:12;18.00;99.90
59556;DHT22;45374;52.746;6.304;2022-08-21T07:29:38;18.10;99.90
59556;DHT22;45374;52.746;6.304;2022-08-21T07:32:04;18.10;99.90
59556;DHT22;45374;52.746;6.304;2022-08-21T07:34:30;18.30;99.90
59556;DHT22;45374;52.746;6.304;2022-08-21T07:36:57;18.30;99.90
59556;DHT22;45374;52.746;6.304;2022-08-21T07:39:24;18.30;99.90
59556;DHT22;45374;52.746;6.304;2022-08-21T07:41:49;18.50;99.90
59556;DHT22;45374;52.746;6.304;2022-08-21T07:44:15;18.50;99.90
59556;DHT22;45374;52.746;6.304;2022-08-21T07:46:41;18.60;99.90
59556;DHT22;45374;52.746;6.304;2022-08-21T07:49:06;18.60;99.90
59556;DHT22;45374;52.746;6.304;2022-08-21T07:51:32;18.70;99.90
59556;DHT22;45374;52.746;6.304;2022-08-21T07:53:59;18.70;99.90
59556;DHT22;45374;52.746;6.304;2022-08-21T07:56:26;18.80;99.90
59556;DHT22;45374;52.746;6.304;2022-08-21T07:58:52;18.80;99.90
59556;DHT22;45374;52.746;6.304;2022-08-21T08:01:18;18.90;99.90
59556;DHT22;45374;52.746;6.304;2022-08-21T08:03:44;18.90;99.90
59556;DHT22;45374;52.746;6.304;2022-08-21T08:06:10;18.90;99.90
59556;DHT22;45374;52.746;6.304;2022-08-21T08:08:41;19.00;99.90
59556;DHT22;45374;52.746;6.304;2022-08-21T08:11:09;19.10;99.90
59556;DHT22;45374;52.746;6.304;2022-08-21T08:13:46;19.20;99.90
59556;DHT22;45374;52.746;6.304;2022-08-21T08:16:13;19.30;99.90
59556;DHT22;45374;52.746;6.304;2022-08-21T08:18:38;19.40;99.90
59556;DHT22;45374;52.746;6.304;2022-08-21T08:21:04;19.40;99.90
59556;DHT22;45374;52.746;6.304;2022-08-21T08:23:31;19.50;99.90
59556;DHT22;45374;52.746;6.304;2022-08-21T08:25:57;19.50;99.90
59556;DHT22;45374;52.746;6.304;2022-08-21T08:28:23;19.60;99.90
59556;DHT22;45374;52.746;6.304;2022-08-21T08:30:49;19.70;99.90
59556;DHT22;45374;52.746;6.304;2022-08-21T08:33:15;19.70;99.90
59556;DHT22;45374;52.746;6.304;2022-08-21T08:35:45;19.70;99.90
59556;DHT22;45374;52.746;6.304;2022-08-21T08:38:11;19.80;99.90
59556;DHT22;45374;52.746;6.304;2022-08-21T08:40:47;19.90;99.90
59556;DHT22;45374;52.746;6.304;2022-08-21T08:43:17;20.00;99.90
59556;DHT22;45374;52.746;6.304;2022-08-21T08:45:47;20.00;99.90
59556;DHT22;45374;52.746;6.304;2022-08-21T08:51:02;20.10;99.90
59556;DHT22;45374;52.746;6.304;2022-08-21T08:53:33;20.20;99.90
59556;DHT22;45374;52.746;6.304;2022-08-21T08:56:04;20.20;99.90
59556;DHT22;45374;52.746;6.304;2022-08-21T08:58:42;20.30;99.90
59556;DHT22;45374;52.746;6.304;2022-08-21T09:01:17;20.40;99.90
59556;DHT22;45374;52.746;6.304;2022-08-21T09:03:45;20.50;99.90
59556;DHT22;45374;52.746;6.304;2022-08-21T09:09:04;20.60;99.90
59556;DHT22;45374;52.746;6.304;2022-08-21T09:12:00;20.70;99.90
59556;DHT22;45374;52.746;6.304;2022-08-21T09:25:27;21.10;99.90
59556;DHT22;45374;52.746;6.304;2022-08-21T09:27:54;21.20;99.90
59556;DHT22;45374;52.746;6.304;2022-08-21T09:30:26;21.30;99.90
59556;DHT22;45374;52.746;6.304;2022-08-21T09:32:52;21.50;99.90
59556;DHT22;45374;52.746;6.304;2022-08-21T09:35:20;21.50;99.90
59556;DHT22;45374;52.746;6.304;2022-08-21T09:42:55;21.20;99.90
59556;DHT22;45374;52.746;6.304;2022-08-21T09:45:22;20.90;99.90
59556;DHT22;45374;52.746;6.304;2022-08-21T09:47:47;20.90;99.90
59556;DHT22;45374;52.746;6.304;2022-08-21T09:50:19;20.90;99.90
59556;DHT22;45374;52.746;6.304;2022-08-21T09:52:52;20.90;99.90
59556;DHT22;45374;52.746;6.304;2022-08-21T09:55:37;20.80;99.90
59556;DHT22;45374;52.746;6.304;2022-08-21T09:58:30;20.70;99.90
59556;DHT22;45374;52.746;6.304;2022-08-21T10:00:59;20.80;99.90
59556;DHT22;45374;52.746;6.304;2022-08-21T10:03:25;21.10;99.90
59556;DHT22;45374;52.746;6.304;2022-08-21T10:05:55;21.40;99.90
59556;DHT22;45374;52.746;6.304;2022-08-21T10:08:23;21.60;99.90
59556;DHT22;45374;52.746;6.304;2022-08-21T10:11:01;21.50;99.90
59556;DHT22;45374;52.746;6.304;2022-08-21T10:18:43;21.50;99.90
59556;DHT22;45374;52.746;6.304;2022-08-21T10:21:26;22.00;99.90
59556;DHT22;45374;52.746;6.304;2022-08-21T10:29:16;22.70;99.90
59556;DHT22;45374;52.746;6.304;2022-08-21T10:42:31;23.20;99.90
59556;DHT22;45374;52.746;6.304;2022-08-21T10:45:26;23.20;99.90
59556;DHT22;45374;52.746;6.304;2022-08-21T10:47:55;22.90;99.90
59556;DHT22;45374;52.746;6.304;2022-08-21T11:04:09;22.30;99.90
59556;DHT22;45374;52.746;6.304;2022-08-21T11:06:41;22.20;99.90
59556;DHT22;45374;52.746;6.304;2022-08-21T11:09:14;22.30;99.90
59556;DHT22;45374;52.746;6.304;2022-08-21T11:12:09;22.60;99.90
59556;DHT22;45374;52.746;6.304;2022-08-21T11:15:05;22.80;99.90
59556;DHT22;45374;52.746;6.304;2022-08-21T11:18:09;22.80;99.90
59556;DHT22;45374;52.746;6.304;2022-08-21T11:23:37;23.10;99.90
59556;DHT22;45374;52.746;6.304;2022-08-21T11:26:29;23.20;99.90
59556;DHT22;45374;52.746;6.304;2022-08-21T11:29:08;23.30;99.90
59556;DHT22;45374;52.746;6.304;2022-08-21T11:34:51;23.30;99.90
59556;DHT22;45374;52.746;6.304;2022-08-21T11:37:40;23.50;99.90
59556;DHT22;45374;52.746;6.304;2022-08-21T11:46:06;24.10;99.90
59556;DHT22;45374;52.746;6.304;2022-08-21T11:51:30;24.40;99.90
59556;DHT22;45374;52.746;6.304;2022-08-21T11:57:03;24.30;99.90
59556;DHT22;45374;52.746;6.304;2022-08-21T11:59:39;24.10;99.90
59556;DHT22;45374;52.746;6.304;2022-08-21T12:02:13;24.10;99.90
59556;DHT22;45374;52.746;6.304;2022-08-21T12:04:49;23.90;99.90
59556;DHT22;45374;52.746;6.304;2022-08-21T12:10:15;23.40;99.90
59556;DHT22;45374;52.746;6.304;2022-08-21T12:12:43;23.10;99.90
59556;DHT22;45374;52.746;6.304;2022-08-21T12:17:59;22.80;99.90
59556;DHT22;45374;52.746;6.304;2022-08-21T12:25:41;23.20;99.90
59556;DHT22;45374;52.746;6.304;2022-08-21T12:28:13;23.30;99.90
59556;DHT22;45374;52.746;6.304;2022-08-21T12:30:42;23.40;99.90
59556;DHT22;45374;52.746;6.304;2022-08-21T12:33:37;23.60;99.90
59556;DHT22;45374;52.746;6.304;2022-08-21T12:36:17;23.90;99.90
59556;DHT22;45374;52.746;6.304;2022-08-21T12:41:28;24.20;99.90
59556;DHT22;45374;52.746;6.304;2022-08-21T12:44:09;24.20;99.90
59556;DHT22;45374;52.746;6.304;2022-08-21T12:46:50;24.00;99.90
59556;DHT22;45374;52.746;6.304;2022-08-21T12:52:09;23.30;99.90
59556;DHT22;45374;52.746;6.304;2022-08-21T12:54:43;23.00;99.90
59556;DHT22;45374;52.746;6.304;2022-08-21T12:57:20;22.90;99.90
59556;DHT22;45374;52.746;6.304;2022-08-21T12:59:52;22.80;99.90
59556;DHT22;45374;52.746;6.304;2022-08-21T13:02:18;23.00;99.90
59556;DHT22;45374;52.746;6.304;2022-08-21T13:04:46;23.20;99.90
59556;DHT22;45374;52.746;6.304;2022-08-21T13:07:16;23.50;99.90
59556;DHT22;45374;52.746;6.304;2022-08-21T13:09:51;23.60;99.90
59556;DHT22;45374;52.746;6.304;2022-08-21T13:12:20;23.70;99.90
59556;DHT22;45374;52.746;6.304;2022-08-21T13:14:48;23.70;99.90
59556;DHT22;45374;52.746;6.304;2022-08-21T13:17:21;23.70;99.90
59556;DHT22;45374;52.746;6.304;2022-08-21T13:20:08;23.60;99.90
59556;DHT22;45374;52.746;6.304;2022-08-21T13:22:41;23.60;99.90
59556;DHT22;45374;52.746;6.304;2022-08-21T13:25:13;23.50;99.90
59556;DHT22;45374;52.746;6.304;2022-08-21T13:27:44;23.30;99.90
59556;DHT22;45374;52.746;6.304;2022-08-21T13:30:19;23.40;99.90
59556;DHT22;45374;52.746;6.304;2022-08-21T13:32:50;23.40;99.90
59556;DHT22;45374;52.746;6.304;2022-08-21T13:35:26;23.30;99.90
59556;DHT22;45374;52.746;6.304;2022-08-21T13:37:54;23.30;99.90
59556;DHT22;45374;52.746;6.304;2022-08-21T13:40:31;23.30;99.90
59556;DHT22;45374;52.746;6.304;2022-08-21T13:42:59;23.20;99.90
59556;DHT22;45374;52.746;6.304;2022-08-21T13:45:31;23.20;99.90
59556;DHT22;45374;52.746;6.304;2022-08-21T13:47:59;23.40;99.90
59556;DHT22;45374;52.746;6.304;2022-08-21T13:50:25;23.60;99.90
59556;DHT22;45374;52.746;6.304;2022-08-21T13:53:02;23.80;99.90
59556;DHT22;45374;52.746;6.304;2022-08-21T13:55:40;24.00;99.90
59556;DHT22;45374;52.746;6.304;2022-08-21T13:58:07;24.00;99.90
59556;DHT22;45374;52.746;6.304;2022-08-21T14:00:44;24.00;99.90
59556;DHT22;45374;52.746;6.304;2022-08-21T14:03:10;24.20;99.90
59556;DHT22;45374;52.746;6.304;2022-08-21T14:05:44;24.30;99.90
59556;DHT22;45374;52.746;6.304;2022-08-21T14:08:11;24.20;99.90
59556;DHT22;45374;52.746;6.304;2022-08-21T14:10:43;24.00;99.90
59556;DHT22;45374;52.746;6.304;2022-08-21T14:15:58;23.60;99.90
59556;DHT22;45374;52.746;6.304;2022-08-21T14:18:24;23.40;99.90
59556;DHT22;45374;52.746;6.304;2022-08-21T14:20:52;23.20;99.90
59556;DHT22;45374;52.746;6.304;2022-08-21T14:23:28;23.00;99.90
59556;DHT22;45374;52.746;6.304;2022-08-21T14:25:59;22.90;99.90
59556;DHT22;45374;52.746;6.304;2022-08-21T14:28:28;22.90;99.90
59556;DHT22;45374;52.746;6.304;2022-08-21T14:30:57;23.10;99.90
59556;DHT22;45374;52.746;6.304;2022-08-21T14:33:32;23.20;99.90
59556;DHT22;45374;52.746;6.304;2022-08-21T14:35:58;23.20;99.90
59556;DHT22;45374;52.746;6.304;2022-08-21T14:38:25;23.10;99.90
59556;DHT22;45374;52.746;6.304;2022-08-21T14:40:58;23.10;99.90
59556;DHT22;45374;52.746;6.304;2022-08-21T14:43:26;23.10;99.90
59556;DHT22;45374;52.746;6.304;2022-08-21T14:45:53;23.20;99.90
59556;DHT22;45374;52.746;6.304;2022-08-21T14:48:19;23.40;99.90
59556;DHT22;45374;52.746;6.304;2022-08-21T14:50:45;23.60;99.90
59556;DHT22;45374;52.746;6.304;2022-08-21T14:53:10;23.60;99.90
59556;DHT22;45374;52.746;6.304;2022-08-21T14:55:37;23.50;99.90
59556;DHT22;45374;52.746;6.304;2022-08-21T14:58:22;23.40;99.90
59556;DHT22;45374;52.746;6.304;2022-08-21T15:00:50;23.20;99.90
59556;DHT22;45374;52.746;6.304;2022-08-21T15:03:18;23.10;99.90
59556;DHT22;45374;52.746;6.304;2022-08-21T15:05:44;22.90;99.90
59556;DHT22;45374;52.746;6.304;2022-08-21T15:08:10;22.70;99.90
59556;DHT22;45374;52.746;6.304;2022-08-21T15:10:36;22.70;99.90
59556;DHT22;45374;52.746;6.304;2022-08-21T15:13:02;22.60;99.90
59556;DHT22;45374;52.746;6.304;2022-08-21T15:15:36;22.60;99.90
59556;DHT22;45374;52.746;6.304;2022-08-21T15:18:03;22.60;99.90
59556;DHT22;45374;52.746;6.304;2022-08-21T15:20:29;22.70;99.90
59556;DHT22;45374;52.746;6.304;2022-08-21T15:22:55;22.80;99.90
59556;DHT22;45374;52.746;6.304;2022-08-21T15:25:21;22.90;99.90
59556;DHT22;45374;52.746;6.304;2022-08-21T15:27:46;22.90;99.90
59556;DHT22;45374;52.746;6.304;2022-08-21T15:30:12;22.90;99.90
59556;DHT22;45374;52.746;6.304;2022-08-21T15:32:38;22.90;99.90
59556;DHT22;45374;52.746;6.304;2022-08-21T15:35:04;22.90;99.90
59556;DHT22;45374;52.746;6.304;2022-08-21T15:37:30;23.00;99.90
59556;DHT22;45374;52.746;6.304;2022-08-21T15:39:56;23.00;99.90
59556;DHT22;45374;52.746;6.304;2022-08-21T15:42:22;23.00;99.90
59556;DHT22;45374;52.746;6.304;2022-08-21T15:44:48;23.00;99.90
59556;DHT22;45374;52.746;6.304;2022-08-21T15:47:18;23.00;99.90
59556;DHT22;45374;52.746;6.304;2022-08-21T15:49:45;23.00;99.90
59556;DHT22;45374;52.746;6.304;2022-08-21T15:52:15;23.20;99.90
59556;DHT22;45374;52.746;6.304;2022-08-21T15:54:41;23.20;99.90
59556;DHT22;45374;52.746;6.304;2022-08-21T15:57:09;23.20;99.90
59556;DHT22;45374;52.746;6.304;2022-08-21T15:59:43;23.10;99.90
59556;DHT22;45374;52.746;6.304;2022-08-21T16:02:13;23.00;99.90
59556;DHT22;45374;52.746;6.304;2022-08-21T16:04:41;23.00;99.90
59556;DHT22;45374;52.746;6.304;2022-08-21T16:07:06;22.90;99.90
59556;DHT22;45374;52.746;6.304;2022-08-21T16:09:32;22.90;99.90
59556;DHT22;45374;52.746;6.304;2022-08-21T16:12:01;22.80;99.90
59556;DHT22;45374;52.746;6.304;2022-08-21T16:14:29;22.90;99.90
59556;DHT22;45374;52.746;6.304;2022-08-21T16:16:56;22.80;99.90
59556;DHT22;45374;52.746;6.304;2022-08-21T16:19:22;22.80;99.90
59556;DHT22;45374;52.746;6.304;2022-08-21T16:21:47;22.70;99.90
59556;DHT22;45374;52.746;6.304;2022-08-21T16:24:13;22.60;99.90
59556;DHT22;45374;52.746;6.304;2022-08-21T16:26:39;22.40;99.90
59556;DHT22;45374;52.746;6.304;2022-08-21T16:29:05;22.20;99.90
59556;DHT22;45374;52.746;6.304;2022-08-21T16:31:32;22.10;99.90
59556;DHT22;45374;52.746;6.304;2022-08-21T16:33:58;22.00;99.90
59556;DHT22;45374;52.746;6.304;2022-08-21T16:36:25;22.00;99.90
59556;DHT22;45374;52.746;6.304;2022-08-21T16:38:51;22.00;99.90
59556;DHT22;45374;52.746;6.304;2022-08-21T16:41:20;22.00;99.90
59556;DHT22;45374;52.746;6.304;2022-08-21T16:43:48;22.00;99.90
59556;DHT22;45374;52.746;6.304;2022-08-21T16:46:14;22.00;99.90
59556;DHT22;45374;52.746;6.304;2022-08-21T16:48:41;22.00;99.90
59556;DHT22;45374;52.746;6.304;2022-08-21T16:51:09;21.90;99.90
59556;DHT22;45374;52.746;6.304;2022-08-21T16:53:35;21.80;99.90
59556;DHT22;45374;52.746;6.304;2022-08-21T16:56:01;21.70;99.90
59556;DHT22;45374;52.746;6.304;2022-08-21T16:58:32;21.60;99.90
59556;DHT22;45374;52.746;6.304;2022-08-21T17:00:59;21.50;99.90
59556;DHT22;45374;52.746;6.304;2022-08-21T17:03:30;21.50;99.90
59556;DHT22;45374;52.746;6.304;2022-08-21T17:05:57;21.40;99.90
59556;DHT22;45374;52.746;6.304;2022-08-21T17:08:22;21.30;99.90
59556;DHT22;45374;52.746;6.304;2022-08-21T17:10:49;21.30;99.90
59556;DHT22;45374;52.746;6.304;2022-08-21T17:13:15;21.20;99.90